Altmar, New York
Current Conditions -  °F | °C
As of 4:54 PM on Thursday 27 Nov 2014 (Local Time) from KFZY Reporting Station
Overcast Overcast  
Wind Chill: -2°   Ceiling: 4100
Heat Index: -2°   Visibility: 8mi
Dew Point: -3°   Wind: 3mph
Humidity: 89%   Direction: 160°SSE
Pressure: 30.05"   Gusts: NA
Location:  43.51°N, 76°W
Report Text: KFZY 272154Z AUTO 16003KT 8SM FEW028 BKN041 OVC065 M02/M03 A3005 RMK AO2 SNE02B16E28 SLP181 P0000 T10171033
Loading
Personal Weather Stations






























Interactive Weather Map New forecast layout! Learn more

10-Day Weather Forecast

Advertisements
Track Severe Weather on mobile